createdAt,value
2022-12-17T00:01:41.531Z,60.70
2022-12-17T00:04:26.787Z,61.83
2022-12-17T00:07:11.946Z,64.37
2022-12-17T00:09:57.119Z,60.10
2022-12-17T00:12:42.530Z,60.27
2022-12-17T00:15:29.484Z,61.17
2022-12-17T00:18:20.864Z,50.60
2022-12-17T00:21:11.189Z,53.77
2022-12-17T00:23:56.198Z,52.77
2022-12-17T00:26:42.201Z,63.67
2022-12-17T00:29:27.587Z,62.40
2022-12-17T00:32:14.097Z,60.30
2022-12-17T00:34:59.748Z,57.77
2022-12-17T00:37:44.965Z,64.13
2022-12-17T00:40:30.395Z,57.37
2022-12-17T00:43:19.298Z,54.90
2022-12-17T00:46:07.631Z,63.67
2022-12-17T00:48:54.797Z,56.93
2022-12-17T00:51:42.304Z,60.00
2022-12-17T00:54:27.979Z,58.13
2022-12-17T00:57:12.537Z,61.33
2022-12-17T00:59:57.680Z,59.50
2022-12-17T01:02:44.048Z,61.27
2022-12-17T01:05:31.096Z,59.80
2022-12-17T01:08:27.873Z,59.43
2022-12-17T01:11:17.520Z,54.77
2022-12-17T01:14:02.735Z,55.80
2022-12-17T01:16:48.046Z,50.87
2022-12-17T01:19:33.268Z,53.73
2022-12-17T01:22:20.360Z,55.03
2022-12-17T01:25:05.458Z,56.83
2022-12-17T01:27:50.959Z,55.33
2022-12-17T01:30:36.440Z,45.07
2022-12-17T01:33:22.682Z,51.07
2022-12-17T01:36:08.473Z,54.30
2022-12-17T01:38:55.114Z,51.37
2022-12-17T01:41:40.529Z,48.70
2022-12-17T01:45:03.878Z,51.90
2022-12-17T01:47:51.789Z,48.43
2022-12-17T01:50:37.184Z,54.13
2022-12-17T01:53:35.309Z,52.27
2022-12-17T01:56:22.858Z,47.13
2022-12-17T01:59:08.282Z,47.63
2022-12-17T02:01:59.885Z,46.97
2022-12-17T02:04:45.869Z,47.83
2022-12-17T02:07:41.454Z,50.27
2022-12-17T02:10:36.823Z,43.97
2022-12-17T02:13:28.779Z,51.50
2022-12-17T02:16:17.874Z,43.93
2022-12-17T02:19:07.576Z,55.10
2022-12-17T02:21:54.043Z,48.03
2022-12-17T02:24:47.644Z,50.77
2022-12-17T02:27:34.640Z,50.83
2022-12-17T02:30:21.405Z,54.40
2022-12-17T02:33:08.516Z,58.63
2022-12-17T02:35:56.880Z,60.00
2022-12-17T02:38:44.126Z,49.87
2022-12-17T02:41:33.221Z,47.17
2022-12-17T02:44:21.631Z,47.10
2022-12-17T02:47:08.830Z,47.83
2022-12-17T02:49:54.330Z,48.57
2022-12-17T02:52:40.095Z,44.37
2022-12-17T02:55:26.153Z,45.53
2022-12-17T02:58:11.324Z,52.77
2022-12-17T03:00:58.296Z,40.87
2022-12-17T03:03:48.714Z,49.27
2022-12-17T03:06:35.563Z,49.87
2022-12-17T03:09:20.664Z,53.30
2022-12-17T03:12:06.078Z,56.40
2022-12-17T03:14:51.316Z,54.23
2022-12-17T03:17:38.088Z,78.53
2022-12-17T03:20:24.341Z,69.90
2022-12-17T03:23:09.530Z,51.80
2022-12-17T03:25:54.866Z,60.77
2022-12-17T03:28:40.203Z,55.60
2022-12-17T03:31:25.397Z,59.83
2022-12-17T03:34:12.333Z,53.07
2022-12-17T03:36:57.664Z,55.23
2022-12-17T03:39:42.670Z,57.13
2022-12-17T03:42:27.973Z,59.53
2022-12-17T03:45:13.176Z,52.27
2022-12-17T03:47:58.629Z,53.13
2022-12-17T03:50:45.399Z,53.27
2022-12-17T03:53:30.394Z,53.93
2022-12-17T03:56:15.662Z,49.23
2022-12-17T03:59:01.160Z,50.47
2022-12-17T04:01:46.632Z,46.70
2022-12-17T04:04:32.006Z,52.23
2022-12-17T04:07:18.505Z,51.50
2022-12-17T04:10:03.971Z,48.30
2022-12-17T04:12:50.406Z,43.80
2022-12-17T04:15:35.789Z,46.67
2022-12-17T04:18:21.245Z,44.63
2022-12-17T04:21:15.240Z,45.73
2022-12-17T04:24:02.351Z,42.77
2022-12-17T04:26:47.492Z,45.60
2022-12-17T04:29:32.834Z,45.27
2022-12-17T04:32:17.925Z,48.83
2022-12-17T04:35:03.408Z,40.90
2022-12-17T04:37:48.836Z,40.43
2022-12-17T04:40:35.315Z,40.50
2022-12-17T04:43:24.626Z,44.00
2022-12-17T04:46:09.819Z,40.77
2022-12-17T04:48:55.158Z,39.53
2022-12-17T04:51:40.399Z,40.97
2022-12-17T04:54:25.850Z,38.30
2022-12-17T04:57:12.515Z,44.73
2022-12-17T04:59:57.622Z,39.37
2022-12-17T05:02:43.281Z,45.97
2022-12-17T05:05:29.175Z,35.97
2022-12-17T05:08:15.364Z,41.83
2022-12-17T05:11:01.194Z,41.03
2022-12-17T05:13:47.655Z,43.47
2022-12-17T05:16:33.061Z,44.03
2022-12-17T05:19:18.567Z,44.47
2022-12-17T05:22:03.707Z,44.37
2022-12-17T05:24:49.409Z,40.10
2022-12-17T05:27:34.573Z,47.23
2022-12-17T05:30:20.885Z,42.10
2022-12-17T05:33:06.083Z,41.07
2022-12-17T05:35:56.870Z,43.10
2022-12-17T05:38:42.379Z,38.40
2022-12-17T05:41:27.576Z,32.87
2022-12-17T05:44:12.815Z,34.93
2022-12-17T05:46:59.386Z,35.33
2022-12-17T05:49:45.132Z,38.20
2022-12-17T05:52:30.460Z,32.23
2022-12-17T05:55:15.758Z,35.50
2022-12-17T05:58:01.079Z,28.73
2022-12-17T06:00:46.744Z,38.40
2022-12-17T06:03:33.405Z,37.23
2022-12-17T06:06:18.911Z,35.77
2022-12-17T06:09:04.428Z,32.30
2022-12-17T06:11:49.532Z,35.50
2022-12-17T06:14:34.680Z,36.13
2022-12-17T06:17:20.123Z,36.40
2022-12-17T06:20:06.367Z,32.63
2022-12-17T06:22:51.491Z,30.33
2022-12-17T06:25:36.934Z,30.00
2022-12-17T06:28:22.182Z,32.80
2022-12-17T06:31:09.570Z,39.60
2022-12-17T06:33:55.597Z,35.43
2022-12-17T06:36:42.232Z,34.57
2022-12-17T06:39:27.945Z,33.73
2022-12-17T06:42:13.081Z,37.27
2022-12-17T06:44:58.870Z,33.77
2022-12-17T06:47:44.071Z,33.67
2022-12-17T06:50:29.254Z,37.13
2022-12-17T06:53:20.221Z,38.17
2022-12-17T06:56:05.467Z,40.50
2022-12-17T06:58:50.653Z,32.27
2022-12-17T07:01:36.421Z,40.07
2022-12-17T07:04:36.790Z,32.43
2022-12-17T07:07:22.037Z,30.40
2022-12-17T07:10:13.935Z,35.03
2022-12-17T07:12:59.894Z,33.37
2022-12-17T07:15:45.285Z,31.53
2022-12-17T07:18:30.812Z,32.57
2022-12-17T07:21:16.073Z,33.83
2022-12-17T07:24:01.291Z,32.20
2022-12-17T07:26:47.737Z,32.10
2022-12-17T07:29:33.572Z,28.43
2022-12-17T07:32:19.166Z,29.23
2022-12-17T07:35:04.406Z,27.80
2022-12-17T07:37:50.145Z,28.17
2022-12-17T07:40:35.583Z,29.37
2022-12-17T07:43:28.429Z,32.57
2022-12-17T07:46:13.635Z,38.40
2022-12-17T07:48:59.262Z,27.87
2022-12-17T07:51:44.578Z,34.67
2022-12-17T07:54:29.828Z,28.43
2022-12-17T07:57:15.008Z,28.27
2022-12-17T08:00:01.486Z,34.33
2022-12-17T08:02:46.815Z,31.50
2022-12-17T08:05:32.543Z,30.53
2022-12-17T08:08:26.306Z,30.73
2022-12-17T08:11:11.457Z,32.53
2022-12-17T08:13:56.536Z,33.30
2022-12-17T08:16:43.290Z,31.77
2022-12-17T08:19:28.852Z,34.37
2022-12-17T08:22:13.894Z,32.70
2022-12-17T08:24:59.400Z,34.83
2022-12-17T08:27:52.863Z,31.67
2022-12-17T08:30:38.096Z,32.83
2022-12-17T08:33:25.947Z,33.67
2022-12-17T08:36:11.806Z,31.50
2022-12-17T08:38:57.363Z,32.63
2022-12-17T08:41:42.521Z,32.57
2022-12-17T08:44:27.700Z,35.83
2022-12-17T08:47:12.840Z,31.60
2022-12-17T08:49:59.190Z,33.27
2022-12-17T08:52:44.385Z,34.40
2022-12-17T08:55:29.650Z,38.00
2022-12-17T08:58:16.130Z,36.40
2022-12-17T09:01:01.734Z,41.10
2022-12-17T09:03:47.433Z,62.17
2022-12-17T09:06:38.912Z,35.77
2022-12-17T09:09:24.723Z,33.60
2022-12-17T09:12:10.048Z,28.00
2022-12-17T09:14:55.123Z,29.60
2022-12-17T09:17:40.279Z,34.53
2022-12-17T09:20:29.212Z,30.70
2022-12-17T09:23:16.667Z,30.67
2022-12-17T09:26:10.485Z,28.97
2022-12-17T09:28:55.791Z,30.40
2022-12-17T09:31:42.186Z,27.73
2022-12-17T09:34:27.340Z,31.90
2022-12-17T09:37:12.491Z,29.83
2022-12-17T09:39:59.340Z,24.47
2022-12-17T09:42:52.518Z,30.30
2022-12-17T09:45:42.654Z,27.77
2022-12-17T09:48:32.883Z,29.37
2022-12-17T09:51:17.467Z,32.17
2022-12-17T09:54:04.362Z,30.50
2022-12-17T09:56:51.826Z,33.73
2022-12-17T09:59:39.799Z,29.90
2022-12-17T10:02:32.694Z,32.53
2022-12-17T10:05:19.340Z,31.67
2022-12-17T10:08:05.173Z,35.13
2022-12-17T10:10:51.637Z,28.97
2022-12-17T10:13:40.724Z,29.87
2022-12-17T10:16:40.223Z,32.87
2022-12-17T10:19:32.507Z,27.27
2022-12-17T10:22:28.767Z,30.77
2022-12-17T10:25:13.932Z,30.03
2022-12-17T10:27:59.307Z,28.53
2022-12-17T10:30:46.796Z,28.23
2022-12-17T10:33:36.513Z,26.73
2022-12-17T10:36:22.709Z,26.90
2022-12-17T10:39:12.860Z,33.07
2022-12-17T10:42:00.436Z,26.93
2022-12-17T10:44:47.055Z,30.27
2022-12-17T10:47:35.211Z,31.47
2022-12-17T10:50:21.860Z,27.97
2022-12-17T10:53:07.692Z,27.70
2022-12-17T10:55:53.782Z,25.63
2022-12-17T10:58:40.542Z,24.67
2022-12-17T11:01:44.106Z,25.47
2022-12-17T11:04:44.718Z,27.83
2022-12-17T11:07:34.462Z,28.57
2022-12-17T11:10:21.304Z,22.60
2022-12-17T11:13:08.170Z,24.57
2022-12-17T11:15:57.361Z,31.20
2022-12-17T11:18:46.522Z,26.07
2022-12-17T11:21:35.964Z,24.77
2022-12-17T11:24:22.945Z,24.93
2022-12-17T11:27:10.586Z,25.93
2022-12-17T11:29:55.784Z,27.70
2022-12-17T11:33:05.894Z,24.90
2022-12-17T11:36:01.233Z,27.20
2022-12-17T11:38:57.071Z,25.37
2022-12-17T11:41:52.546Z,26.50
2022-12-17T11:44:47.319Z,27.63
2022-12-17T11:47:34.936Z,27.57
2022-12-17T11:50:26.228Z,29.83
2022-12-17T11:57:26.903Z,25.20
2022-12-17T12:00:19.118Z,25.50
2022-12-17T12:03:12.916Z,23.80
2022-12-17T12:06:04.056Z,24.33
2022-12-17T12:08:52.862Z,23.83
2022-12-17T12:11:44.969Z,24.77
2022-12-17T12:14:39.998Z,29.83
2022-12-17T12:17:44.481Z,26.43
2022-12-17T12:20:38.592Z,22.07
2022-12-17T12:23:31.442Z,21.67
2022-12-17T12:26:21.317Z,23.43
2022-12-17T12:29:11.931Z,21.93
2022-12-17T12:32:03.329Z,25.03
2022-12-17T12:38:38.571Z,25.17
2022-12-17T12:41:30.208Z,27.40
2022-12-17T12:44:19.053Z,26.03
2022-12-17T12:47:11.685Z,30.20
2022-12-17T12:50:01.091Z,29.40
2022-12-17T12:52:46.546Z,28.10
2022-12-17T12:55:32.176Z,28.13
2022-12-17T12:58:18.832Z,27.33
2022-12-17T13:01:12.030Z,30.43
2022-12-17T13:04:08.700Z,30.00
2022-12-17T13:06:43.283Z,29.87
2022-12-17T13:09:39.739Z,28.67
2022-12-17T13:12:23.819Z,29.70
2022-12-17T13:14:56.131Z,33.17
2022-12-17T13:17:33.935Z,31.23
2022-12-17T13:20:20.533Z,31.13
2022-12-17T13:22:52.953Z,30.10
2022-12-17T13:25:22.771Z,28.60
2022-12-17T13:27:51.485Z,27.57
2022-12-17T13:30:34.452Z,26.77
2022-12-17T13:33:19.713Z,28.80
2022-12-17T13:35:59.106Z,28.70
2022-12-17T13:38:34.342Z,27.80
2022-12-17T13:41:10.523Z,28.10
2022-12-17T13:43:41.427Z,27.70
2022-12-17T13:46:18.910Z,26.57
2022-12-17T13:48:53.741Z,27.70
2022-12-17T13:51:23.888Z,30.57
2022-12-17T13:53:55.931Z,30.33
2022-12-17T13:56:27.516Z,30.53
2022-12-17T13:58:57.379Z,30.17
2022-12-17T14:01:27.155Z,30.73
2022-12-17T14:04:06.143Z,30.50
2022-12-17T14:06:38.017Z,27.57
2022-12-17T14:09:06.621Z,28.50
2022-12-17T14:11:52.016Z,31.77
2022-12-17T14:14:23.565Z,30.80
2022-12-17T14:16:51.444Z,29.03
2022-12-17T14:19:22.153Z,33.33
2022-12-17T14:21:51.579Z,29.00
2022-12-17T14:24:20.464Z,32.03
2022-12-17T14:26:50.226Z,34.33
2022-12-17T14:29:23.859Z,32.17
2022-12-17T14:31:56.555Z,31.07
2022-12-17T14:34:24.551Z,33.03
2022-12-17T14:36:58.232Z,31.10
2022-12-17T14:39:27.681Z,33.80
2022-12-17T14:42:15.035Z,31.30
2022-12-17T14:44:52.026Z,31.23
2022-12-17T14:47:22.428Z,36.67
2022-12-17T14:49:56.487Z,32.53
2022-12-17T14:52:38.515Z,28.83
2022-12-17T14:55:30.642Z,35.93
2022-12-17T14:58:17.741Z,32.83
2022-12-17T15:00:47.990Z,36.13
2022-12-17T15:03:20.240Z,37.07
2022-12-17T15:05:51.963Z,38.83
2022-12-17T15:08:22.673Z,36.27
2022-12-17T15:10:50.523Z,36.87
2022-12-17T15:13:18.428Z,37.33
2022-12-17T15:15:46.562Z,34.07
2022-12-17T15:18:14.427Z,37.47
2022-12-17T15:20:42.351Z,41.30
2022-12-17T15:23:15.911Z,36.97
2022-12-17T15:25:47.093Z,42.03
2022-12-17T15:28:15.642Z,39.10
2022-12-17T15:30:43.615Z,42.53
2022-12-17T15:33:12.461Z,40.83
2022-12-17T15:35:40.499Z,37.63
2022-12-17T15:38:08.999Z,36.70
2022-12-17T15:40:37.735Z,40.17
2022-12-17T15:43:11.955Z,40.07
2022-12-17T15:45:40.732Z,46.87
2022-12-17T15:48:09.384Z,43.33
2022-12-17T15:50:37.515Z,44.07
2022-12-17T15:53:05.493Z,40.67
2022-12-17T15:55:33.429Z,48.17
2022-12-17T15:58:01.251Z,46.50
2022-12-17T16:00:30.711Z,44.37
2022-12-17T16:02:58.775Z,44.07
2022-12-17T16:05:26.854Z,44.60
2022-12-17T16:07:58.892Z,47.90
2022-12-17T16:10:26.921Z,46.27
2022-12-17T16:12:54.717Z,43.63
2022-12-17T16:15:22.614Z,43.37
2022-12-17T16:17:51.917Z,47.10
2022-12-17T16:20:20.897Z,46.03
2022-12-17T16:22:48.919Z,43.87
2022-12-17T16:25:17.006Z,45.27
2022-12-17T16:27:44.776Z,47.53
2022-12-17T16:30:14.173Z,52.10
2022-12-17T16:32:41.929Z,61.17
2022-12-17T16:35:11.348Z,50.60
2022-12-17T16:37:39.132Z,48.23
2022-12-17T16:40:08.020Z,52.17
2022-12-17T16:42:35.734Z,46.73
2022-12-17T16:45:03.551Z,51.23
2022-12-17T16:47:31.295Z,47.50
2022-12-17T16:49:59.116Z,46.20
2022-12-17T16:52:28.302Z,46.37
2022-12-17T16:54:56.322Z,49.87
2022-12-17T16:57:24.328Z,49.13
2022-12-17T16:59:52.109Z,47.13
2022-12-17T17:02:20.478Z,47.73
2022-12-17T17:04:48.868Z,45.40
2022-12-17T17:07:16.608Z,46.10
2022-12-17T17:09:45.746Z,50.83
2022-12-17T17:12:13.600Z,50.73
2022-12-17T17:14:43.794Z,52.73
2022-12-17T17:17:11.965Z,49.90
2022-12-17T17:19:39.896Z,52.43
2022-12-17T17:22:07.676Z,52.23
2022-12-17T17:24:35.575Z,57.60
2022-12-17T17:27:04.903Z,56.40
2022-12-17T17:29:32.704Z,47.97
2022-12-17T17:32:09.714Z,52.90
2022-12-17T17:34:39.316Z,51.60
2022-12-17T17:37:07.089Z,58.70
2022-12-17T17:39:35.068Z,57.27
2022-12-17T17:42:04.567Z,62.43
2022-12-17T17:44:32.333Z,56.90
2022-12-17T17:47:00.302Z,63.00
2022-12-17T17:49:28.865Z,55.77
2022-12-17T17:52:12.432Z,64.30
2022-12-17T17:54:40.800Z,60.30
2022-12-17T17:57:10.562Z,56.87
2022-12-17T17:59:39.239Z,73.73
2022-12-17T18:02:07.608Z,55.17
2022-12-17T18:04:35.478Z,51.27
2022-12-17T18:09:51.027Z,47.90
2022-12-17T18:12:37.619Z,48.13
2022-12-17T18:15:15.775Z,50.57
2022-12-17T18:17:45.411Z,48.57
2022-12-17T18:20:13.473Z,50.00
2022-12-17T18:22:41.536Z,35.80
2022-12-17T18:25:09.403Z,46.17
2022-12-17T18:27:38.719Z,47.87
2022-12-17T18:30:07.570Z,45.93
2022-12-17T18:32:35.551Z,52.50
2022-12-17T18:35:03.660Z,46.17
2022-12-17T18:37:31.443Z,46.00
2022-12-17T18:39:59.312Z,43.07
2022-12-17T18:42:44.493Z,43.33
2022-12-17T18:45:16.768Z,39.10
2022-12-17T18:47:45.178Z,44.50
2022-12-17T18:50:13.481Z,46.63
2022-12-17T18:52:42.310Z,45.53
2022-12-17T18:55:13.455Z,48.70
2022-12-17T18:57:41.731Z,56.23
2022-12-17T19:00:10.928Z,46.40
2022-12-17T19:02:40.285Z,42.33
2022-12-17T19:05:08.937Z,40.20
2022-12-17T19:07:36.764Z,38.60
2022-12-17T19:10:05.090Z,28.60
2022-12-17T19:12:33.314Z,32.30
2022-12-17T19:15:01.128Z,42.07
2022-12-17T19:17:29.015Z,34.03
2022-12-17T19:19:58.258Z,39.37
2022-12-17T19:22:26.098Z,34.83
2022-12-17T19:24:53.975Z,38.73
2022-12-17T19:27:21.976Z,40.03
2022-12-17T19:29:57.159Z,33.60
2022-12-17T19:32:25.393Z,35.63
2022-12-17T19:34:53.276Z,34.13
2022-12-17T19:37:22.702Z,37.43
2022-12-17T19:39:50.505Z,21.97
2022-12-17T19:42:25.431Z,19.87
2022-12-17T19:44:53.922Z,19.67
2022-12-17T19:47:22.452Z,32.57
2022-12-17T19:49:50.373Z,29.93
2022-12-17T19:52:18.192Z,33.20
2022-12-17T19:54:47.400Z,36.17
2022-12-17T19:57:16.792Z,34.43
2022-12-17T19:59:44.633Z,33.87
2022-12-17T20:02:12.649Z,36.70
2022-12-17T20:04:40.544Z,37.17
2022-12-17T20:07:08.310Z,36.77
2022-12-17T20:09:36.064Z,41.20
2022-12-17T20:12:05.476Z,39.13
2022-12-17T20:14:34.264Z,44.17
2022-12-17T20:17:02.689Z,32.77
2022-12-17T20:19:32.363Z,22.77
2022-12-17T20:22:01.431Z,39.10
2022-12-17T20:24:31.870Z,30.50
2022-12-17T20:27:00.219Z,34.17
2022-12-17T20:29:30.059Z,40.17
2022-12-17T20:31:57.966Z,39.30
2022-12-17T20:34:26.241Z,19.40
2022-12-17T20:36:54.659Z,38.80
2022-12-17T20:39:27.135Z,32.20
2022-12-17T20:41:55.994Z,35.03
2022-12-17T20:44:23.731Z,31.43
2022-12-17T20:46:52.892Z,34.97
2022-12-17T20:49:20.758Z,32.33
2022-12-17T20:51:48.497Z,22.33
2022-12-17T20:54:16.280Z,26.03
2022-12-17T20:56:44.021Z,29.33
2022-12-17T20:59:15.540Z,19.87
2022-12-17T21:01:43.600Z,13.27
2022-12-17T21:04:13.554Z,15.77
2022-12-17T21:06:42.819Z,20.07
2022-12-17T21:09:11.634Z,23.23
2022-12-17T21:11:40.073Z,34.70
2022-12-17T21:14:09.511Z,28.43
2022-12-17T21:16:38.173Z,37.60
2022-12-17T21:19:07.038Z,34.43
2022-12-17T21:21:37.911Z,29.37
2022-12-17T21:24:06.499Z,18.77
2022-12-17T21:26:35.963Z,26.57
2022-12-17T21:29:05.612Z,28.03
2022-12-17T21:31:35.400Z,26.53
2022-12-17T21:34:05.994Z,38.50
2022-12-17T21:36:36.200Z,17.13
2022-12-17T21:39:09.273Z,23.70
2022-12-17T21:41:39.367Z,29.13
2022-12-17T21:44:13.626Z,11.63
2022-12-17T21:46:43.256Z,17.87
2022-12-17T21:49:11.754Z,17.67
2022-12-17T21:51:41.074Z,20.00
2022-12-17T21:54:10.684Z,18.90
2022-12-17T21:56:41.052Z,31.37
2022-12-17T21:59:08.758Z,12.63
2022-12-17T22:01:36.729Z,11.73
2022-12-17T22:04:05.597Z,19.37
2022-12-17T22:06:40.542Z,20.80
2022-12-17T22:09:22.742Z,18.90
2022-12-17T22:12:16.215Z,17.97
2022-12-17T22:14:44.454Z,17.10
2022-12-17T22:17:12.184Z,17.20
2022-12-17T22:19:39.973Z,16.53
2022-12-17T22:22:07.773Z,13.97
2022-12-17T22:24:37.082Z,18.47
2022-12-17T22:27:05.155Z,18.03
2022-12-17T22:29:55.207Z,22.10
2022-12-17T22:32:40.554Z,23.80
2022-12-17T22:35:37.437Z,22.10
2022-12-17T22:41:00.608Z,24.73
2022-12-17T22:44:35.015Z,25.07
2022-12-17T22:44:41.787Z,28.07
2022-12-17T22:46:21.312Z,29.97
2022-12-17T22:48:49.081Z,32.07
2022-12-17T22:51:23.185Z,29.70
2022-12-17T22:53:56.805Z,34.00
2022-12-17T22:56:58.707Z,34.50
2022-12-17T22:59:16.675Z,30.23
2022-12-17T23:01:44.564Z,32.53
2022-12-17T23:04:13.858Z,27.07
2022-12-17T23:06:41.761Z,29.53
2022-12-17T23:09:09.636Z,30.27
2022-12-17T23:11:38.771Z,28.40
2022-12-17T23:14:08.620Z,24.07
2022-12-17T23:16:38.736Z,22.07
2022-12-17T23:19:06.795Z,23.20
2022-12-17T23:21:35.065Z,28.53
2022-12-17T23:24:03.118Z,29.67
2022-12-17T23:26:32.847Z,30.93
2022-12-17T23:29:04.900Z,32.70
2022-12-17T23:31:34.919Z,28.33
2022-12-17T23:34:03.358Z,28.57
2022-12-17T23:36:31.135Z,30.43
2022-12-17T23:38:59.450Z,33.97
2022-12-17T23:41:28.930Z,35.37
2022-12-17T23:43:56.923Z,29.70
2022-12-17T23:46:28.042Z,30.87
2022-12-17T23:48:55.965Z,34.87
2022-12-17T23:51:24.621Z,30.17
2022-12-17T23:53:52.560Z,28.87
2022-12-17T23:56:22.149Z,29.53
2022-12-17T23:58:53.220Z,31.63
